CheckWX is a tool to help pilots better visualize weather data.  It is not intended as a substitute for an official pre-flight weather briefing.

16:05:12 UTC

YSSY TAF
Sydney Kingsford Smith International Airport
Sydney, Australia
TAF COR YSSY 181246Z 1812/1918 25007KT 9999 -SHRA SCT015 BKN025 FM190000 17015KT 9999 -SHRA SCT015 BKN025 FM190200 17015KT 9999 -SHRA SCT020 BKN030 FM191000 20010KT 9999 -SHRA SCT020 BKN030 FM191200 25007KT 9999 -SHRA SCT020 BKN030 INTER 1812/1918 4000 SHRA BKN010 PROB40 TEMPO 1812/1818 VRB15G25KT 3000 TSRA BKN010 SCT030CB

Mar-18@
12:00 UTC

Mar-18 @ 12:00 UTC

Mar-19@
00:00 UTC

Mar-19 @ 00:00 UTC

TAF COR YSSY 181246Z 1812/1918 25007KT 9999 -SHRA SCT015 BKN025
Wind
  • 250° at 7 KTS
Conditions
Light Rain
Cloud Levels
  • Scattered at 1,500' AGL
  • Broken at 2,500' AGL

Mar-18@
12:00 UTC

Mar-18 @ 12:00 UTC

Mar-18@
18:00 UTC

Mar-18 @ 18:00 UTC

PROB40 TEMPO 1812/1818 VRB15G25KT 3000 TSRA BKN010 SCT030CB

Temporary - 40% Likelihood

Temporary - 40% Likelihood during this time.

Wind
  • Variable at 15 KTS
  • {Gusting to 25 KTS
Conditions
Thunderstorm, Rain
Cloud Levels
  • Broken at 1,000' AGL
  • Scattered at 3,000' AGL

Mar-18@
12:00 UTC

Mar-18 @ 12:00 UTC

Mar-19@
18:00 UTC

Mar-19 @ 18:00 UTC

INTER 1812/1918 4000 SHRA BKN010

Temporary

Temporary Changes expected for less than half the time period

Conditions
Rain
Cloud Levels
  • Broken at 1,000' AGL

Mar-19@
00:00 UTC

Mar-19 @ 00:00 UTC

Mar-19@
02:00 UTC

Mar-19 @ 02:00 UTC

FM190000 17015KT 9999 -SHRA SCT015 BKN025

From

From Standard forecast or significant change

Wind
  • 170° at 15 KTS
Conditions
Light Rain
Cloud Levels
  • Scattered at 1,500' AGL
  • Broken at 2,500' AGL

Mar-19@
02:00 UTC

Mar-19 @ 02:00 UTC

Mar-19@
10:00 UTC

Mar-19 @ 10:00 UTC

FM190200 17015KT 9999 -SHRA SCT020 BKN030

From

From Standard forecast or significant change

Wind
  • 170° at 15 KTS
Conditions
Light Rain
Cloud Levels
  • Scattered at 2,000' AGL
  • Broken at 3,000' AGL

Mar-19@
10:00 UTC

Mar-19 @ 10:00 UTC

Mar-19@
12:00 UTC

Mar-19 @ 12:00 UTC

FM191000 20010KT 9999 -SHRA SCT020 BKN030

From

From Standard forecast or significant change

Wind
  • 200° at 10 KTS
Conditions
Light Rain
Cloud Levels
  • Scattered at 2,000' AGL
  • Broken at 3,000' AGL

Mar-19@
12:00 UTC

Mar-19 @ 12:00 UTC

Mar-19@
18:00 UTC

Mar-19 @ 18:00 UTC

FM191200 25007KT 9999 -SHRA SCT020 BKN030

From

From Standard forecast or significant change

Wind
  • 250° at 7 KTS
Conditions
Light Rain
Cloud Levels
  • Scattered at 2,000' AGL
  • Broken at 3,000' AGL